Time;durP1;ratioP1;P1;durP2;ratioP2;P2;SDS_P1;SDS_P2;PMS_P1;PMS_P2;Temp;Humidity;BMP_temperature;BMP_pressure;BME280_temperature;BME280_humidity;BME280_pressure;Samples;Min_cycle;Max_cycle;Signal;HPM_P1;HPM_P2
2023/03/27 00:01:19;;;;;;;71.75;19.58;;;;;;;;;;12815419;19;20425;-67
2023/03/27 00:06:19;;;;;;;36.40;11.00;;;;;;;;;;12814590;19;20561;-67
2023/03/27 00:10:46;;;;;;;16.55;6.57;;;;;;;;;;12817231;19;20318;-66
2023/03/27 00:15:20;;;;;;;6.95;3.67;;;;;;;;;;12820260;19;20485;-66
2023/03/27 00:21:04;;;;;;;58.80;16.60;;;;;;;;;;12815003;19;20279;-67
2023/03/27 00:25:51;;;;;;;71.63;18.75;;;;;;;;;;12816286;19;20429;-67
2023/03/27 00:31:20;;;;;;;20.52;7.03;;;;;;;;;;12816187;19;20315;-67
2023/03/27 00:37:19;;;;;;;7.95;3.40;;;;;;;;;;12814577;19;20411;-66
2023/03/27 00:42:56;;;;;;;5.70;3.58;;;;;;;;;;12811391;19;20026;-67
2023/03/27 00:48:21;;;;;;;7.47;3.53;;;;;;;;;;12815219;19;20470;-67
2023/03/27 00:53:48;;;;;;;4.85;2.45;;;;;;;;;;12814149;19;20472;-67
2023/03/27 00:58:57;;;;;;;6.97;2.85;;;;;;;;;;12819097;19;20498;-67
2023/03/27 01:04:03;;;;;;;66.72;20.30;;;;;;;;;;12823442;19;20007;-66
2023/03/27 01:08:51;;;;;;;27.40;8.00;;;;;;;;;;12825763;19;20828;-67
2023/03/27 01:14:58;;;;;;;7.80;3.83;;;;;;;;;;12813419;19;20430;-67
2023/03/27 01:20:10;;;;;;;6.68;3.28;;;;;;;;;;12821548;19;20441;-67
2023/03/27 01:25:44;;;;;;;15.13;5.80;;;;;;;;;;12823349;19;20563;-67
2023/03/27 01:37:08;;;;;;;4.85;2.72;;;;;;;;;;12811467;19;20899;-66
2023/03/27 01:42:05;;;;;;;7.25;3.50;;;;;;;;;;12818452;19;20528;-67
2023/03/27 01:53:13;;;;;;;21.33;8.20;;;;;;;;;;12818084;19;20433;-67
2023/03/27 01:57:59;;;;;;;10.82;5.07;;;;;;;;;;12819667;19;20327;-67
2023/03/27 02:02:28;;;;;;;5.82;3.28;;;;;;;;;;12818293;19;20506;-68
2023/03/27 02:13:12;;;;;;;13.30;4.72;;;;;;;;;;12816318;19;20631;-66
2023/03/27 02:17:56;;;;;;;8.50;3.67;;;;;;;;;;12817185;19;20312;-67
2023/03/27 02:28:53;;;;;;;10.60;3.93;;;;;;;;;;12820565;19;20351;-67
2023/03/27 02:34:10;;;;;;;9.63;3.97;;;;;;;;;;12829568;19;20429;-66
2023/03/27 02:39:21;;;;;;;7.72;3.88;;;;;;;;;;12828870;19;20486;-68
2023/03/27 02:44:50;;;;;;;6.97;3.05;;;;;;;;;;12823194;19;20082;-68
2023/03/27 02:49:25;;;;;;;6.35;3.22;;;;;;;;;;12828479;19;20371;-66
2023/03/27 03:00:24;;;;;;;7.72;3.15;;;;;;;;;;12824172;19;20425;-67
2023/03/27 03:05:11;;;;;;;7.75;2.58;;;;;;;;;;12826718;19;20014;-67
2023/03/27 03:15:48;;;;;;;5.45;2.80;;;;;;;;;;12819398;19;20002;-67
2023/03/27 03:20:46;;;;;;;7.60;2.60;;;;;;;;;;12818258;19;20014;-67
2023/03/27 03:25:16;;;;;;;5.25;2.47;;;;;;;;;;12821949;19;20683;-66
2023/03/27 03:35:57;;;;;;;5.18;2.60;;;;;;;;;;12817935;19;20355;-67
2023/03/27 03:40:49;;;;;;;69.57;23.60;;;;;;;;;;12817088;19;20315;-67
2023/03/27 03:51:50;;;;;;;7.13;2.95;;;;;;;;;;12817016;19;20473;-66
2023/03/27 03:56:28;;;;;;;3.60;1.88;;;;;;;;;;12820633;19;20503;-67
2023/03/27 04:07:16;;;;;;;4.60;1.88;;;;;;;;;;12822903;19;20478;-66
2023/03/27 04:11:45;;;;;;;4.72;2.38;;;;;;;;;;12826148;19;20438;-66
2023/03/27 04:17:05;;;;;;;4.00;1.85;;;;;;;;;;12824376;19;20355;-66
2023/03/27 04:22:54;;;;;;;5.38;2.35;;;;;;;;;;12814091;19;20434;-66
2023/03/27 04:27:29;;;;;;;9.77;3.47;;;;;;;;;;12816584;19;20274;-66
2023/03/27 04:33:25;;;;;;;6.07;3.65;;;;;;;;;;12821637;19;20659;-66
2023/03/27 04:43:46;;;;;;;5.15;3.38;;;;;;;;;;12823889;19;20873;-66
2023/03/27 04:54:54;;;;;;;10.10;4.85;;;;;;;;;;12820986;19;20351;-68
2023/03/27 04:59:51;;;;;;;6.88;4.78;;;;;;;;;;12822114;19;20489;-66
2023/03/27 05:04:26;;;;;;;9.10;4.80;;;;;;;;;;12821816;19;20578;-67
2023/03/27 05:09:11;;;;;;;7.32;4.82;;;;;;;;;;12825638;19;20359;-66
2023/03/27 05:13:52;;;;;;;8.57;4.85;;;;;;;;;;12816156;19;20026;-66
2023/03/27 05:18:50;;;;;;;10.20;4.88;;;;;;;;;;12818921;19;20429;-66
2023/03/27 05:29:48;;;;;;;7.07;4.68;;;;;;;;;;12815452;19;20325;-66
2023/03/27 05:34:29;;;;;;;8.85;5.22;;;;;;;;;;12816487;19;20310;-67
2023/03/27 05:39:04;;;;;;;8.77;4.57;;;;;;;;;;12816190;19;20355;-67
2023/03/27 05:49:07;;;;;;;7.53;3.90;;;;;;;;;;12815132;19;20015;-67
2023/03/27 05:53:49;;;;;;;7.18;4.05;;;;;;;;;;12820778;19;20727;-66
2023/03/27 05:58:54;;;;;;;8.73;3.95;;;;;;;;;;12819999;19;20612;-67
2023/03/27 06:08:45;;;;;;;7.40;4.07;;;;;;;;;;12831218;19;20009;-67
2023/03/27 06:13:13;;;;;;;6.10;4.10;;;;;;;;;;12830555;19;20387;-66
2023/03/27 06:29:09;;;;;;;9.18;5.20;;;;;;;;;;12828545;19;20066;-67
2023/03/27 06:33:47;;;;;;;6.97;4.90;;;;;;;;;;12828311;19;20302;-67
2023/03/27 06:39:26;;;;;;;8.93;4.97;;;;;;;;;;12829561;19;20452;-66
2023/03/27 06:44:37;;;;;;;7.18;4.43;;;;;;;;;;12828054;19;20445;-67
2023/03/27 06:49:06;;;;;;;6.97;4.60;;;;;;;;;;12826927;19;20347;-68
2023/03/27 06:54:14;;;;;;;7.50;3.88;;;;;;;;;;12831234;19;20011;-67
2023/03/27 06:59:50;;;;;;;6.75;3.95;;;;;;;;;;12824512;19;20609;-67
2023/03/27 07:04:46;;;;;;;5.68;2.92;;;;;;;;;;12827706;19;20613;-68
2023/03/27 07:09:19;;;;;;;4.50;3.35;;;;;;;;;;12828604;19;20438;-67
2023/03/27 07:19:48;;;;;;;3.85;2.72;;;;;;;;;;12823588;19;20038;-67
2023/03/27 07:24:26;;;;;;;3.72;2.75;;;;;;;;;;12826227;19;20461;-68
2023/03/27 07:29:15;;;;;;;5.80;3.33;;;;;;;;;;12826801;19;20537;-66
2023/03/27 07:34:14;;;;;;;5.88;3.35;;;;;;;;;;12828133;19;20505;-66
2023/03/27 07:39:16;;;;;;;5.32;3.22;;;;;;;;;;12817943;19;20377;-67
2023/03/27 07:44:06;;;;;;;8.50;4.45;;;;;;;;;;12819912;19;20382;-67
2023/03/27 07:48:49;;;;;;;5.68;3.53;;;;;;;;;;12823591;19;20481;-67
2023/03/27 07:54:18;;;;;;;6.57;3.77;;;;;;;;;;12826016;19;20438;-67
2023/03/27 07:59:23;;;;;;;5.55;3.47;;;;;;;;;;12815441;19;20327;-66
2023/03/27 08:04:19;;;;;;;5.20;3.95;;;;;;;;;;12815956;19;20434;-68
2023/03/27 08:08:57;;;;;;;6.70;4.65;;;;;;;;;;12816591;19;20426;-67
2023/03/27 08:18:56;;;;;;;5.68;3.10;;;;;;;;;;12815977;19;20379;-67
2023/03/27 08:23:29;;;;;;;8.27;4.13;;;;;;;;;;12813364;19;20414;-67
2023/03/27 08:28:14;;;;;;;5.50;3.85;;;;;;;;;;12814320;19;20517;-67
2023/03/27 08:38:31;;;;;;;9.60;4.40;;;;;;;;;;12813862;19;20492;-66
2023/03/27 08:43:27;;;;;;;6.60;3.72;;;;;;;;;;12815278;19;20010;-66
2023/03/27 08:54:39;;;;;;;6.82;3.97;;;;;;;;;;12818286;19;20434;-68
2023/03/27 08:59:20;;;;;;;7.32;4.75;;;;;;;;;;12821088;19;20432;-66
2023/03/27 09:17:03;;;;;;;13.93;6.85;;;;;;;;;;12812009;19;20478;-66
2023/03/27 09:33:20;;;;;;;8.98;4.57;;;;;;;;;;12812842;19;20426;-67
2023/03/27 09:38:22;;;;;;;14.48;8.95;;;;;;;;;;12810241;19;20459;-67
2023/03/27 09:49:04;;;;;;;14.52;7.25;;;;;;;;;;12809658;19;20011;-67
2023/03/27 09:53:48;;;;;;;12.43;6.20;;;;;;;;;;12809129;19;20490;-67
2023/03/27 10:04:58;;;;;;;5.47;3.88;;;;;;;;;;12808981;19;20439;-67
2023/03/27 10:10:14;;;;;;;11.85;7.82;;;;;;;;;;12809479;19;20495;-67
2023/03/27 10:20:53;;;;;;;;;;;;;;;;;;12809739;19;20469;-67
2023/03/27 10:25:52;;;;;;;11.35;6.65;;;;;;;;;;12816033;19;20207;-67
2023/03/27 10:37:13;;;;;;;10.32;5.82;;;;;;;;;;12814102;19;20014;-67
2023/03/27 10:42:21;;;;;;;7.77;3.23;;;;;;;;;;12814918;19;20021;-67
2023/03/27 10:46:45;;;;;;;6.65;4.57;;;;;;;;;;12821197;19;20426;-67
2023/03/27 10:58:18;;;;;;;6.57;2.80;;;;;;;;;;12817352;19;20468;-67
2023/03/27 11:03:24;;;;;;;2.97;2.40;;;;;;;;;;12819598;19;20376;-68
2023/03/27 11:09:26;;;;;;;4.18;2.05;;;;;;;;;;12818689;19;20437;-67
2023/03/27 11:15:09;;;;;;;5.78;2.35;;;;;;;;;;12818306;19;20377;-68
2023/03/27 11:19:57;;;;;;;6.53;2.35;;;;;;;;;;12819384;19;20454;-67
2023/03/27 11:25:01;;;;;;;8.88;2.58;;;;;;;;;;12820953;19;20419;-67
2023/03/27 11:30:03;;;;;;;;;;;;;;;;;;12817959;19;20968;-67
2023/03/27 11:35:14;;;;;;;6.30;3.53;;;;;;;;;;12817141;19;20323;-67
2023/03/27 11:40:46;;;;;;;7.78;2.72;;;;;;;;;;12818489;19;20498;-68
2023/03/27 11:51:09;;;;;;;6.18;3.47;;;;;;;;;;12817177;19;20311;-66
2023/03/27 11:55:56;;;;;;;9.88;4.63;;;;;;;;;;12816647;19;20007;-67
2023/03/27 12:01:00;;;;;;;14.23;5.57;;;;;;;;;;12817055;19;20279;-67
2023/03/27 12:07:09;;;;;;;10.15;4.38;;;;;;;;;;12815653;19;20326;-66
2023/03/27 12:12:26;;;;;;;15.85;8.45;;;;;;;;;;12815819;19;20017;-66
2023/03/27 12:17:56;;;;;;;8.82;4.13;;;;;;;;;;12817962;19;20337;-66
2023/03/27 12:23:17;;;;;;;11.85;4.43;;;;;;;;;;12712666;19;2004866;-66
2023/03/27 12:28:12;;;;;;;7.47;3.25;;;;;;;;;;12814413;19;20136;-66
2023/03/27 12:33:54;;;;;;;3.72;2.10;;;;;;;;;;12815633;19;20038;-67
2023/03/27 12:39:21;;;;;;;6.45;2.95;;;;;;;;;;12713451;19;2005001;-66
2023/03/27 12:44:54;;;;;;;3.13;2.25;;;;;;;;;;12811941;19;20435;-67
2023/03/27 12:49:21;;;;;;;3.08;1.48;;;;;;;;;;12811857;19;20470;-66
2023/03/27 13:00:20;;;;;;;5.70;1.92;;;;;;;;;;12811768;19;20333;-67
2023/03/27 13:05:24;;;;;;;4.20;1.73;;;;;;;;;;12812450;19;20442;-67
2023/03/27 13:17:09;;;;;;;2.53;1.70;;;;;;;;;;12713231;19;2005031;-67
2023/03/27 13:22:43;;;;;;;5.03;1.60;;;;;;;;;;12811795;19;20351;-67
2023/03/27 13:27:47;;;;;;;3.42;2.00;;;;;;;;;;12812167;19;20066;-66
2023/03/27 13:33:07;;;;;;;3.95;2.13;;;;;;;;;;12813904;19;20102;-67
2023/03/27 13:39:04;;;;;;;5.05;2.80;;;;;;;;;;12816014;19;20584;-67
2023/03/27 13:43:55;;;;;;;3.47;2.25;;;;;;;;;;12818971;19;20430;-67
2023/03/27 13:55:15;;;;;;;3.47;2.15;;;;;;;;;;12709335;19;2005204;-67
2023/03/27 14:00:57;;;;;;;6.03;3.33;;;;;;;;;;12810773;19;20434;-67
2023/03/27 14:17:59;;;;;;;8.75;3.92;;;;;;;;;;12812919;19;20376;-67
2023/03/27 14:23:11;;;;;;;7.18;3.40;;;;;;;;;;12825231;19;20375;-67
2023/03/27 14:33:27;;;;;;;7.25;3.90;;;;;;;;;;12821771;19;20442;-67
2023/03/27 14:38:46;;;;;;;11.95;4.63;;;;;;;;;;12819522;19;20652;-67
2023/03/27 14:43:20;;;;;;;5.93;2.78;;;;;;;;;;12819519;19;20541;-67
2023/03/27 14:55:02;;;;;;;8.70;4.55;;;;;;;;;;12720707;19;2005002;-67
2023/03/27 14:59:51;;;;;;;9.15;3.95;;;;;;;;;;12820673;19;20018;-67
2023/03/27 15:04:28;;;;;;;4.85;2.40;;;;;;;;;;12819767;19;20352;-67
2023/03/27 15:09:53;;;;;;;;;;;;;;;;;;12821274;19;20478;-66
2023/03/27 15:14:24;;;;;;;3.33;1.90;;;;;;;;;;12821522;19;20354;-67
2023/03/27 15:19:08;;;;;;;8.18;2.22;;;;;;;;;;12824524;19;20121;-67
2023/03/27 15:24:50;;;;;;;6.00;2.20;;;;;;;;;;12828126;19;20490;-66
2023/03/27 15:36:05;;;;;;;4.80;2.20;;;;;;;;;;12824591;19;20052;-66
2023/03/27 15:41:15;;;;;;;5.10;2.60;;;;;;;;;;12826773;19;20396;-66
2023/03/27 15:47:21;;;;;;;7.18;2.78;;;;;;;;;;12818930;19;21091;-65
2023/03/27 15:51:48;;;;;;;9.90;2.60;;;;;;;;;;12817479;19;21097;-66
2023/03/27 16:02:53;;;;;;;6.30;2.60;;;;;;;;;;12817163;19;20107;-66
2023/03/27 16:07:47;;;;;;;0.93;0.88;;;;;;;;;;12816392;19;20315;-66
2023/03/27 16:12:18;;;;;;;7.63;3.00;;;;;;;;;;12816082;19;20434;-66
2023/03/27 16:17:59;;;;;;;7.72;3.05;;;;;;;;;;12815952;19;20729;-66
2023/03/27 16:23:05;;;;;;;4.25;2.40;;;;;;;;;;12814022;19;20413;-66
2023/03/27 16:27:51;;;;;;;3.13;1.50;;;;;;;;;;12814932;19;20453;-67
2023/03/27 16:33:24;;;;;;;3.85;1.80;;;;;;;;;;12818406;19;21407;-66
2023/03/27 16:38:53;;;;;;;5.72;3.75;;;;;;;;;;12820547;19;20567;-66
2023/03/27 16:43:47;;;;;;;7.57;3.22;;;;;;;;;;12813772;19;20318;-66
2023/03/27 17:00:53;;;;;;;6.72;3.20;;;;;;;;;;12710334;19;2005817;-67
2023/03/27 17:11:14;;;;;;;8.05;4.38;;;;;;;;;;12813624;19;20087;-66
2023/03/27 17:16:04;;;;;;;19.08;9.05;;;;;;;;;;12813208;19;20550;-67
2023/03/27 17:20:48;;;;;;;7.57;2.92;;;;;;;;;;12813079;19;20397;-66
2023/03/27 17:37:42;;;;;;;10.50;4.50;;;;;;;;;;12811548;19;20409;-66
2023/03/27 17:48:23;;;;;;;13.13;5.68;;;;;;;;;;12716444;19;2005816;-67
2023/03/27 17:53:20;;;;;;;14.43;5.85;;;;;;;;;;12816706;19;20394;-66
2023/03/27 18:10:20;;;;;;;15.05;8.57;;;;;;;;;;12822384;19;20461;-66
2023/03/27 18:15:42;;;;;;;15.70;7.85;;;;;;;;;;12823999;19;20357;-66
2023/03/27 18:21:08;;;;;;;18.17;7.82;;;;;;;;;;12826204;19;20469;-66
2023/03/27 18:26:44;;;;;;;16.02;6.60;;;;;;;;;;12826359;19;20007;-67
2023/03/27 18:42:55;;;;;;;52.97;17.75;;;;;;;;;;12819469;19;20452;-66
2023/03/27 18:54:17;;;;;;;83.53;25.02;;;;;;;;;;12719382;19;2005208;-66
2023/03/27 18:59:24;;;;;;;104.40;31.80;;;;;;;;;;12817296;19;20454;-66
2023/03/27 19:04:07;;;;;;;49.08;20.33;;;;;;;;;;12821290;19;20942;-67
2023/03/27 19:31:48;;;;;;;36.88;16.67;;;;;;;;;;12859216;19;20369;-68
2023/03/27 19:36:28;;;;;;;26.50;11.27;;;;;;;;;;12863909;19;20324;-67
2023/03/27 19:47:10;;;;;;;44.83;14.18;;;;;;;;;;12861533;19;20033;-67
2023/03/27 19:52:31;;;;;;;71.85;18.15;;;;;;;;;;12849009;19;20310;-67
2023/03/27 19:57:20;;;;;;;45.72;11.93;;;;;;;;;;12849617;19;20305;-68
2023/03/27 20:02:14;;;;;;;70.25;19.80;;;;;;;;;;12853077;19;20695;-68
2023/03/27 20:06:48;;;;;;;85.47;24.95;;;;;;;;;;12853730;19;20466;-67
2023/03/27 20:16:51;;;;;;;47.45;17.05;;;;;;;;;;12852083;19;20441;-67
2023/03/27 20:21:47;;;;;;;41.47;12.23;;;;;;;;;;12847366;19;20339;-67
2023/03/27 20:26:26;;;;;;;78.22;18.40;;;;;;;;;;12804895;19;20437;-67
2023/03/27 20:37:55;;;;;;;27.37;7.87;;;;;;;;;;12795956;19;20350;-67
2023/03/27 20:43:09;;;;;;;32.88;10.13;;;;;;;;;;12796036;19;20463;-68
2023/03/27 20:47:51;;;;;;;63.88;17.92;;;;;;;;;;12799754;19;20724;-67
2023/03/27 20:52:28;;;;;;;26.08;9.95;;;;;;;;;;12801430;19;20364;-67
2023/03/27 20:58:13;;;;;;;54.67;15.43;;;;;;;;;;12810648;19;20102;-67
2023/03/27 21:02:55;;;;;;;37.10;11.98;;;;;;;;;;12806440;19;20477;-67
2023/03/27 21:08:00;;;;;;;46.22;14.35;;;;;;;;;;12807569;19;20440;-67
2023/03/27 21:18:50;;;;;;;32.92;10.23;;;;;;;;;;12804318;19;20483;-67
2023/03/27 21:23:46;;;;;;;30.92;10.73;;;;;;;;;;12795578;19;20425;-67
2023/03/27 21:33:07;;;;;;;24.45;8.73;;;;;;;;;;12798228;19;20010;-67
2023/03/27 21:37:42;;;;;;;28.20;10.32;;;;;;;;;;12800269;19;20303;-68
2023/03/27 21:42:46;;;;;;;28.80;10.85;;;;;;;;;;12802710;19;20007;-69
2023/03/27 21:47:29;;;;;;;;;;;;;;;;;;12801458;19;20082;-68
2023/03/27 21:52:19;;;;;;;23.42;9.00;;;;;;;;;;12800530;19;20240;-68
2023/03/27 22:02:56;;;;;;;20.73;9.00;;;;;;;;;;12803253;19;20867;-67
2023/03/27 22:08:16;;;;;;;19.98;7.35;;;;;;;;;;12803744;19;20125;-68
2023/03/27 22:13:21;;;;;;;19.35;7.63;;;;;;;;;;12798434;19;20445;-68
2023/03/27 22:23:39;;;;;;;12.75;4.97;;;;;;;;;;12805828;19;20301;-67
2023/03/27 22:33:06;;;;;;;15.57;6.93;;;;;;;;;;12798352;19;20010;-67
2023/03/27 22:37:29;;;;;;;13.50;5.57;;;;;;;;;;12800741;19;20471;-67
2023/03/27 22:48:15;;;;;;;14.25;6.20;;;;;;;;;;12796125;19;20437;-68
2023/03/27 22:53:48;;;;;;;10.60;5.05;;;;;;;;;;12800542;19;20791;-68
2023/03/27 22:58:47;;;;;;;12.75;6.50;;;;;;;;;;12798456;19;20027;-67
2023/03/27 23:20:19;;;;;;;12.25;4.90;;;;;;;;;;12803414;19;20384;-67
2023/03/27 23:25:58;;;;;;;12.77;5.05;;;;;;;;;;12795556;19;20010;-67
2023/03/27 23:31:19;;;;;;;11.15;4.65;;;;;;;;;;12796798;19;20290;-67
2023/03/27 23:36:09;;;;;;;16.95;5.93;;;;;;;;;;12798204;19;20367;-67
2023/03/27 23:40:45;;;;;;;13.35;5.50;;;;;;;;;;12799724;19;20480;-67
2023/03/27 23:46:09;;;;;;;10.48;4.82;;;;;;;;;;12801160;19;20357;-67
2023/03/27 23:51:45;;;;;;;13.75;5.75;;;;;;;;;;12786984;19;20037;-67
2023/03/27 23:56:58;;;;;;;15.25;5.40;;;;;;;;;;12790452;19;20370;-67
